Time;durP1;ratioP1;P1;durP2;ratioP2;P2;SDS_P1;SDS_P2;PMS_P1;PMS_P2;Temp;Humidity;BMP_temperature;BMP_pressure;BME280_temperature;BME280_humidity;BME280_pressure;Samples;Min_cycle;Max_cycle;Signal;HPM_P1;HPM_P2
2022/08/18 00:02:20;;;;;;;6.68;2.60;;;;;;;;;;5043603;28;20033;-71
2022/08/18 00:04:45;;;;;;;7.15;2.00;;;;;;;;;;5050962;28;20037;-71
2022/08/18 00:07:12;;;;;;;7.65;2.38;;;;;;;;;;5041980;28;20025;-72
2022/08/18 00:09:38;;;;;;;6.10;2.50;;;;;;;;;;5032798;28;20039;-71
2022/08/18 00:12:06;;;;;;;6.15;2.33;;;;;;;;;;5045835;28;20034;-72
2022/08/18 00:14:31;;;;;;;7.35;2.20;;;;;;;;;;5040052;28;20021;-72
2022/08/18 00:16:57;;;;;;;8.02;2.65;;;;;;;;;;5047101;28;20029;-72
2022/08/18 00:19:23;;;;;;;15.75;3.08;;;;;;;;;;5050745;28;20024;-71
2022/08/18 00:21:48;;;;;;;9.25;2.13;;;;;;;;;;5040844;28;20056;-73
2022/08/18 00:24:13;;;;;;;11.00;2.30;;;;;;;;;;5042769;28;20026;-71
2022/08/18 00:26:39;;;;;;;13.32;2.33;;;;;;;;;;5037247;28;20041;-72
2022/08/18 00:29:04;;;;;;;7.18;2.35;;;;;;;;;;5038239;28;20032;-71
2022/08/18 00:31:30;;;;;;;12.35;2.60;;;;;;;;;;5038214;28;20033;-72
2022/08/18 00:33:55;;;;;;;5.75;2.13;;;;;;;;;;5037560;28;20108;-72
2022/08/18 00:36:20;;;;;;;6.68;2.30;;;;;;;;;;5039421;28;20456;-72
2022/08/18 00:38:46;;;;;;;5.80;2.10;;;;;;;;;;5034086;28;20103;-71
2022/08/18 00:41:11;;;;;;;10.63;2.08;;;;;;;;;;5039686;28;20037;-72
2022/08/18 00:43:41;;;;;;;10.68;2.42;;;;;;;;;;5039726;28;20021;-72
2022/08/18 00:46:18;;;;;;;6.63;2.10;;;;;;;;;;5037705;28;20037;-72
2022/08/18 00:48:43;;;;;;;4.18;2.10;;;;;;;;;;5041806;28;20073;-71
2022/08/18 00:51:11;;;;;;;10.90;2.40;;;;;;;;;;5045870;28;20455;-72
2022/08/18 00:53:40;;;;;;;9.75;3.40;;;;;;;;;;5036415;28;20405;-71
2022/08/18 00:56:09;;;;;;;10.07;2.70;;;;;;;;;;5032090;28;20045;-73
2022/08/18 00:58:38;;;;;;;9.07;2.22;;;;;;;;;;5038064;28;20108;-72
2022/08/18 01:01:05;;;;;;;10.48;2.53;;;;;;;;;;5046901;28;20047;-71
2022/08/18 01:03:32;;;;;;;10.57;2.72;;;;;;;;;;5042067;28;20026;-71
2022/08/18 01:06:03;;;;;;;14.45;2.72;;;;;;;;;;5040057;28;20362;-71
2022/08/18 01:08:28;;;;;;;9.55;2.55;;;;;;;;;;5041686;28;20045;-71
2022/08/18 01:10:54;;;;;;;13.20;2.72;;;;;;;;;;5044930;28;20047;-72
2022/08/18 01:13:19;;;;;;;8.88;2.40;;;;;;;;;;5041557;28;20372;-72
2022/08/18 01:15:44;;;;;;;7.57;2.53;;;;;;;;;;5049799;28;20029;-71
2022/08/18 01:23:47;;;;;;;11.30;2.65;;;;;;;;;;5050308;28;20053;-71
2022/08/18 01:26:13;;;;;;;9.85;2.58;;;;;;;;;;5035335;28;20021;-72
2022/08/18 01:28:39;;;;;;;9.95;2.70;;;;;;;;;;5037484;28;20042;-71
2022/08/18 01:31:05;;;;;;;11.45;2.70;;;;;;;;;;5048258;28;20104;-71
2022/08/18 01:33:48;;;;;;;7.43;2.83;;;;;;;;;;5054338;28;20061;-71
2022/08/18 01:36:15;;;;;;;6.40;2.33;;;;;;;;;;5040153;28;20039;-71
2022/08/18 01:38:45;;;;;;;10.75;2.75;;;;;;;;;;5048733;28;20419;-71
2022/08/18 01:41:10;;;;;;;11.38;2.70;;;;;;;;;;5050769;28;20107;-72
2022/08/18 01:43:36;;;;;;;11.32;3.00;;;;;;;;;;5043879;28;20449;-71
2022/08/18 01:46:03;;;;;;;8.48;2.65;;;;;;;;;;5046306;28;20026;-71
2022/08/18 01:48:31;;;;;;;11.55;3.10;;;;;;;;;;5050463;28;20065;-71
2022/08/18 01:50:57;;;;;;;6.93;2.50;;;;;;;;;;5053555;28;20028;-71
2022/08/18 01:53:22;;;;;;;6.28;2.65;;;;;;;;;;5050669;28;20025;-71
2022/08/18 01:55:47;;;;;;;13.07;3.10;;;;;;;;;;5045408;28;20476;-71
2022/08/18 01:58:13;;;;;;;9.85;2.85;;;;;;;;;;5041512;28;20025;-71
2022/08/18 02:00:40;;;;;;;8.05;2.83;;;;;;;;;;5040772;28;20444;-72
2022/08/18 02:03:07;;;;;;;11.68;3.15;;;;;;;;;;5041261;28;20029;-72
2022/08/18 02:05:34;;;;;;;9.10;2.80;;;;;;;;;;5041445;28;20105;-71
2022/08/18 02:08:00;;;;;;;12.43;2.80;;;;;;;;;;5052713;28;20055;-72
2022/08/18 02:10:26;;;;;;;7.60;2.65;;;;;;;;;;5051755;28;20025;-71
2022/08/18 02:12:51;;;;;;;10.40;2.45;;;;;;;;;;5046461;28;20506;-72
2022/08/18 02:15:17;;;;;;;8.30;2.70;;;;;;;;;;5039889;28;20025;-72
2022/08/18 02:17:43;;;;;;;7.68;2.65;;;;;;;;;;5042628;28;20112;-71
2022/08/18 02:20:09;;;;;;;8.57;3.10;;;;;;;;;;5037314;28;20045;-71
2022/08/18 02:22:36;;;;;;;16.52;2.88;;;;;;;;;;5027501;28;20092;-71
2022/08/18 02:25:02;;;;;;;8.18;2.45;;;;;;;;;;5044445;28;20025;-72
2022/08/18 02:27:27;;;;;;;9.93;2.47;;;;;;;;;;5052271;28;20388;-71
2022/08/18 02:29:53;;;;;;;7.85;2.38;;;;;;;;;;5047982;28;20029;-73
2022/08/18 02:32:18;;;;;;;8.88;2.90;;;;;;;;;;5049309;28;20028;-72
2022/08/18 02:34:43;;;;;;;7.43;2.70;;;;;;;;;;5044417;28;20021;-71
2022/08/18 02:37:09;;;;;;;6.07;2.95;;;;;;;;;;5037782;28;20474;-71
2022/08/18 02:39:36;;;;;;;15.88;3.03;;;;;;;;;;5043108;28;20045;-71
2022/08/18 02:42:03;;;;;;;9.50;2.70;;;;;;;;;;5046735;28;20013;-71
2022/08/18 02:44:28;;;;;;;9.32;3.10;;;;;;;;;;5042372;28;20025;-71
2022/08/18 02:46:53;;;;;;;6.05;2.53;;;;;;;;;;5050066;28;20039;-72
2022/08/18 02:49:19;;;;;;;5.15;2.53;;;;;;;;;;5050112;28;20130;-71
2022/08/18 02:51:45;;;;;;;8.50;2.83;;;;;;;;;;5048080;28;20473;-71
2022/08/18 02:54:10;;;;;;;7.55;2.35;;;;;;;;;;5053372;28;20067;-71
2022/08/18 02:56:35;;;;;;;13.50;2.63;;;;;;;;;;5049811;28;20453;-71
2022/08/18 02:59:08;;;;;;;6.38;2.75;;;;;;;;;;5047666;28;20036;-71
2022/08/18 03:01:39;;;;;;;4.63;2.28;;;;;;;;;;5040132;28;20496;-71
2022/08/18 03:04:05;;;;;;;10.57;2.90;;;;;;;;;;5047861;28;20032;-72
2022/08/18 03:06:31;;;;;;;7.85;2.80;;;;;;;;;;5049436;28;20037;-72
2022/08/18 03:08:56;;;;;;;7.18;2.53;;;;;;;;;;5047143;28;20465;-71
2022/08/18 03:11:23;;;;;;;8.65;2.45;;;;;;;;;;5042463;28;20029;-72
2022/08/18 03:13:48;;;;;;;7.25;2.60;;;;;;;;;;5043471;28;20040;-71
2022/08/18 03:16:17;;;;;;;11.35;3.13;;;;;;;;;;5039526;28;20021;-71
2022/08/18 03:18:43;;;;;;;11.27;3.63;;;;;;;;;;5042839;28;20030;-72
2022/08/18 03:21:10;;;;;;;7.72;2.58;;;;;;;;;;5047220;28;20140;-71
2022/08/18 03:23:37;;;;;;;9.00;2.88;;;;;;;;;;5044391;28;20048;-71
2022/08/18 03:26:02;;;;;;;8.00;3.40;;;;;;;;;;5040825;28;20033;-71
2022/08/18 03:28:28;;;;;;;9.00;2.92;;;;;;;;;;5050626;28;20037;-72
2022/08/18 03:30:53;;;;;;;7.65;2.80;;;;;;;;;;5040981;28;20465;-71
2022/08/18 03:33:18;;;;;;;8.35;2.90;;;;;;;;;;5044471;28;20021;-72
2022/08/18 03:35:44;;;;;;;9.38;2.80;;;;;;;;;;5045536;28;20040;-72
2022/08/18 03:38:10;;;;;;;5.50;2.70;;;;;;;;;;5039893;28;20033;-71
2022/08/18 03:40:36;;;;;;;11.93;3.42;;;;;;;;;;5042111;28;20036;-71
2022/08/18 03:43:05;;;;;;;7.72;2.95;;;;;;;;;;5035656;28;20056;-71
2022/08/18 03:45:31;;;;;;;14.18;2.85;;;;;;;;;;5037515;28;20107;-71
2022/08/18 03:47:56;;;;;;;10.73;2.90;;;;;;;;;;5036938;28;20037;-72
2022/08/18 03:50:24;;;;;;;7.93;2.85;;;;;;;;;;5040407;28;20056;-71
2022/08/18 03:52:49;;;;;;;13.25;3.03;;;;;;;;;;5042031;28;20107;-72
2022/08/18 03:55:15;;;;;;;8.57;3.08;;;;;;;;;;5048639;28;20112;-72
2022/08/18 03:57:41;;;;;;;7.57;3.00;;;;;;;;;;5038476;28;20132;-71
2022/08/18 04:00:08;;;;;;;8.73;2.78;;;;;;;;;;5040912;28;20028;-72
2022/08/18 04:02:34;;;;;;;8.70;3.13;;;;;;;;;;5039729;28;20032;-71
2022/08/18 04:04:59;;;;;;;7.85;2.92;;;;;;;;;;5038831;28;20120;-72
2022/08/18 04:07:24;;;;;;;12.65;3.00;;;;;;;;;;5042991;28;20457;-71
2022/08/18 04:09:50;;;;;;;5.50;2.70;;;;;;;;;;5036429;28;20029;-72
2022/08/18 04:12:15;;;;;;;8.73;2.80;;;;;;;;;;5042826;28;20033;-72
2022/08/18 04:14:41;;;;;;;9.20;2.78;;;;;;;;;;5052483;28;20048;-71
2022/08/18 04:17:07;;;;;;;7.97;2.53;;;;;;;;;;5038309;28;20057;-71
2022/08/18 04:19:33;;;;;;;7.93;2.80;;;;;;;;;;5034030;28;20401;-71
2022/08/18 04:21:59;;;;;;;10.45;3.50;;;;;;;;;;5043243;28;20017;-72
2022/08/18 04:24:25;;;;;;;5.93;2.70;;;;;;;;;;5038070;28;20059;-72
2022/08/18 04:26:50;;;;;;;8.20;2.90;;;;;;;;;;5041331;28;20037;-71
2022/08/18 04:29:17;;;;;;;11.57;3.03;;;;;;;;;;5041475;28;20033;-72
2022/08/18 04:31:42;;;;;;;14.13;3.05;;;;;;;;;;5044007;28;20118;-72
2022/08/18 04:34:08;;;;;;;9.98;3.15;;;;;;;;;;5048386;28;20512;-71
2022/08/18 04:36:34;;;;;;;8.10;2.42;;;;;;;;;;5048596;28;20017;-72
2022/08/18 04:39:00;;;;;;;9.93;3.00;;;;;;;;;;5052851;28;20388;-71
2022/08/18 04:41:26;;;;;;;8.52;2.97;;;;;;;;;;5056460;28;20041;-72
2022/08/18 04:43:57;;;;;;;10.82;2.90;;;;;;;;;;5044984;28;20022;-71
2022/08/18 04:46:22;;;;;;;13.38;3.00;;;;;;;;;;5049206;28;20024;-71
2022/08/18 04:48:47;;;;;;;10.45;2.90;;;;;;;;;;5051481;28;20443;-71
2022/08/18 04:51:14;;;;;;;9.40;2.85;;;;;;;;;;5048939;28;20064;-71
2022/08/18 04:53:46;;;;;;;8.63;2.95;;;;;;;;;;5040738;28;20032;-71
2022/08/18 04:56:21;;;;;;;7.05;2.90;;;;;;;;;;5055572;28;20036;-71
2022/08/18 04:58:51;;;;;;;3.95;2.55;;;;;;;;;;5049336;28;20034;-72
2022/08/18 05:01:17;;;;;;;13.40;3.20;;;;;;;;;;5047141;28;20025;-71
2022/08/18 05:03:43;;;;;;;17.25;3.22;;;;;;;;;;5042637;28;20025;-72
2022/08/18 05:06:09;;;;;;;12.35;2.95;;;;;;;;;;5048868;28;20025;-72
2022/08/18 05:08:34;;;;;;;8.63;2.90;;;;;;;;;;5044612;28;20034;-72
2022/08/18 05:11:00;;;;;;;10.02;3.25;;;;;;;;;;5048597;28;20029;-71
2022/08/18 05:13:25;;;;;;;5.57;2.42;;;;;;;;;;5050693;28;20033;-71
2022/08/18 05:16:02;;;;;;;10.02;3.10;;;;;;;;;;5051380;28;20392;-71
2022/08/18 05:18:27;;;;;;;6.75;2.40;;;;;;;;;;5041733;28;20341;-71
2022/08/18 05:20:54;;;;;;;8.70;2.60;;;;;;;;;;5044745;28;20075;-71
2022/08/18 05:23:19;;;;;;;9.77;3.22;;;;;;;;;;5047360;28;20052;-72
2022/08/18 05:25:45;;;;;;;9.27;2.97;;;;;;;;;;5045603;28;20025;-71
2022/08/18 05:28:10;;;;;;;5.82;2.92;;;;;;;;;;5041630;28;20026;-71
2022/08/18 05:30:36;;;;;;;8.07;2.72;;;;;;;;;;5041508;28;20022;-72
2022/08/18 05:33:02;;;;;;;9.27;2.95;;;;;;;;;;5046949;28;20357;-71
2022/08/18 05:35:34;;;;;;;9.77;3.58;;;;;;;;;;5046212;28;20040;-71
2022/08/18 05:38:18;;;;;;;9.57;2.55;;;;;;;;;;5036969;28;20029;-72
2022/08/18 05:40:44;;;;;;;7.78;2.85;;;;;;;;;;5049811;28;20549;-72
2022/08/18 05:43:11;;;;;;;7.88;2.88;;;;;;;;;;5036412;28;20057;-72
2022/08/18 05:45:38;;;;;;;11.60;2.88;;;;;;;;;;5040030;28;20464;-71
2022/08/18 05:48:03;;;;;;;6.63;3.30;;;;;;;;;;5040970;28;20037;-72
2022/08/18 05:50:31;;;;;;;12.60;2.92;;;;;;;;;;5047620;28;20369;-72
2022/08/18 05:52:59;;;;;;;5.82;2.70;;;;;;;;;;5051417;28;20025;-72
2022/08/18 05:58:31;;;;;;;5.28;2.40;;;;;;;;;;5041910;28;20040;-72
2022/08/18 06:00:59;;;;;;;5.82;3.45;;;;;;;;;;5044215;28;20521;-72
2022/08/18 06:03:31;;;;;;;8.60;3.10;;;;;;;;;;5041554;28;20040;-72
2022/08/18 06:06:00;;;;;;;9.65;3.05;;;;;;;;;;5048001;28;20032;-72
2022/08/18 06:08:31;;;;;;;5.75;2.95;;;;;;;;;;5045282;28;20032;-71
2022/08/18 06:10:56;;;;;;;10.68;2.95;;;;;;;;;;5042371;28;20029;-71
2022/08/18 06:13:21;;;;;;;7.15;2.83;;;;;;;;;;5037880;28;20034;-72
2022/08/18 06:16:05;;;;;;;9.30;2.97;;;;;;;;;;5042161;28;20082;-71
2022/08/18 06:18:31;;;;;;;;;;;;;;;;;;5037794;28;20029;-72
2022/08/18 06:20:58;;;;;;;9.55;2.75;;;;;;;;;;5051452;28;19957;-72
2022/08/18 06:23:36;;;;;;;6.55;2.42;;;;;;;;;;5039790;28;20401;-72
2022/08/18 06:26:19;;;;;;;10.00;2.80;;;;;;;;;;5041594;28;20067;-73
2022/08/18 06:28:56;;;;;;;12.18;3.13;;;;;;;;;;5052793;28;20098;-71
2022/08/18 06:31:21;;;;;;;9.13;3.47;;;;;;;;;;5041512;28;20060;-72
2022/08/18 06:34:08;;;;;;;11.48;2.80;;;;;;;;;;5052274;28;20436;-72
2022/08/18 06:36:53;;;;;;;12.38;3.25;;;;;;;;;;5034043;28;20108;-72
2022/08/18 06:39:31;;;;;;;15.75;3.38;;;;;;;;;;5037203;28;20056;-72
2022/08/18 06:41:56;;;;;;;12.75;2.95;;;;;;;;;;5043999;28;20477;-73
2022/08/18 06:44:32;;;;;;;12.10;3.05;;;;;;;;;;5038581;28;20033;-73
2022/08/18 06:47:14;;;;;;;9.25;3.28;;;;;;;;;;5044398;28;20354;-73
2022/08/18 06:49:53;;;;;;;11.48;2.40;;;;;;;;;;5045814;28;20101;-72
2022/08/18 06:52:24;;;;;;;14.38;4.00;;;;;;;;;;5041657;28;20039;-72
2022/08/18 06:54:50;;;;;;;9.38;3.30;;;;;;;;;;5037663;28;20104;-72
2022/08/18 06:57:23;;;;;;;13.13;3.53;;;;;;;;;;5040694;28;20096;-73
2022/08/18 06:59:56;;;;;;;14.25;3.25;;;;;;;;;;5048186;28;20048;-72
2022/08/18 07:02:24;;;;;;;9.20;2.90;;;;;;;;;;5045555;28;20067;-74
2022/08/18 07:05:00;;;;;;;11.82;3.47;;;;;;;;;;5050848;28;20108;-72
2022/08/18 07:07:31;;;;;;;11.63;3.58;;;;;;;;;;5040823;28;20200;-73
2022/08/18 07:09:57;;;;;;;11.85;3.25;;;;;;;;;;5041182;28;20038;-73
2022/08/18 07:12:24;;;;;;;22.00;3.95;;;;;;;;;;5038759;28;20104;-74
2022/08/18 07:14:52;;;;;;;14.07;3.33;;;;;;;;;;5046288;28;20040;-72
2022/08/18 07:17:22;;;;;;;8.70;2.90;;;;;;;;;;5053154;28;20423;-73
2022/08/18 07:19:59;;;;;;;7.82;2.72;;;;;;;;;;5040985;28;20034;-72
2022/08/18 07:22:25;;;;;;;9.85;3.13;;;;;;;;;;5037660;28;20049;-73
2022/08/18 07:24:55;;;;;;;9.98;3.28;;;;;;;;;;5038565;28;20381;-73
2022/08/18 07:27:40;;;;;;;14.93;4.10;;;;;;;;;;5041775;28;20468;-72
2022/08/18 07:30:08;;;;;;;9.20;3.47;;;;;;;;;;5033679;28;20488;-73
2022/08/18 07:32:39;;;;;;;10.90;4.55;;;;;;;;;;5041771;28;20391;-73
2022/08/18 07:35:06;;;;;;;13.13;3.80;;;;;;;;;;5050292;28;20032;-73
2022/08/18 07:37:31;;;;;;;8.35;3.50;;;;;;;;;;5047524;28;20070;-73
2022/08/18 07:40:15;;;;;;;10.48;4.35;;;;;;;;;;5047056;28;20037;-74
2022/08/18 07:42:40;;;;;;;;;;;;;;;;;;5035675;28;20373;-73
2022/08/18 07:45:05;;;;;;;9.73;3.53;;;;;;;;;;5045408;28;20306;-74
2022/08/18 07:47:34;;;;;;;12.07;3.95;;;;;;;;;;5046129;28;20511;-74
2022/08/18 07:50:00;;;;;;;9.38;3.55;;;;;;;;;;5022918;28;20039;-74
2022/08/18 07:52:30;;;;;;;8.68;3.60;;;;;;;;;;5032695;28;20448;-74
2022/08/18 07:55:07;;;;;;;13.43;4.35;;;;;;;;;;5036836;28;20049;-75
2022/08/18 07:57:38;;;;;;;14.88;4.68;;;;;;;;;;5031226;28;20025;-74
2022/08/18 08:00:09;;;;;;;13.60;4.43;;;;;;;;;;5041941;28;20045;-74
2022/08/18 08:02:38;;;;;;;12.18;3.88;;;;;;;;;;5038248;28;20064;-72
2022/08/18 08:05:09;;;;;;;11.48;3.30;;;;;;;;;;5041794;28;20026;-73
2022/08/18 08:07:39;;;;;;;10.95;3.50;;;;;;;;;;5043752;28;20025;-73
2022/08/18 08:10:23;;;;;;;14.00;4.47;;;;;;;;;;5025080;28;20068;-75
2022/08/18 08:13:01;;;;;;;15.13;4.20;;;;;;;;;;5042242;28;20064;-75
2022/08/18 08:15:45;;;;;;;11.70;4.93;;;;;;;;;;5020205;28;20354;-78
2022/08/18 08:18:22;;;;;;;13.93;4.65;;;;;;;;;;5023282;28;20039;-77
2022/08/18 08:20:50;;;;;;;13.07;4.22;;;;;;;;;;5031868;28;20112;-77
2022/08/18 08:23:16;;;;;;;9.85;4.30;;;;;;;;;;5045161;28;20084;-78
2022/08/18 08:26:00;;;;;;;11.13;4.78;;;;;;;;;;5041467;28;20487;-77
2022/08/18 08:28:36;;;;;;;11.95;5.80;;;;;;;;;;5023344;28;20080;-77
2022/08/18 08:31:09;;;;;;;11.82;5.78;;;;;;;;;;5027563;28;20510;-77
2022/08/18 08:33:37;;;;;;;7.87;5.10;;;;;;;;;;5044319;28;20037;-77
2022/08/18 08:36:09;;;;;;;11.10;4.97;;;;;;;;;;5039620;28;20032;-78
2022/08/18 08:38:57;;;;;;;12.00;5.80;;;;;;;;;;5044745;28;20547;-77
2022/08/18 08:41:34;;;;;;;11.15;6.10;;;;;;;;;;5027906;28;20256;-77
2022/08/18 08:44:00;;;;;;;14.82;6.10;;;;;;;;;;5022574;28;20037;-77
2022/08/18 08:46:29;;;;;;;15.65;6.50;;;;;;;;;;5029060;28;20041;-78
2022/08/18 08:48:58;;;;;;;10.38;5.93;;;;;;;;;;5034704;28;20469;-78
2022/08/18 08:51:35;;;;;;;12.57;5.88;;;;;;;;;;5035744;28;20029;-77
2022/08/18 08:54:04;;;;;;;13.50;5.97;;;;;;;;;;5031683;28;20061;-77
2022/08/18 08:56:32;;;;;;;12.90;6.30;;;;;;;;;;5046564;28;20115;-77
2022/08/18 08:59:03;;;;;;;14.40;5.25;;;;;;;;;;5033623;28;20469;-78
2022/08/18 09:01:39;;;;;;;12.32;6.25;;;;;;;;;;5028264;28;20029;-78
2022/08/18 09:04:23;;;;;;;17.77;6.78;;;;;;;;;;5030826;28;20029;-78
2022/08/18 09:07:11;;;;;;;16.50;6.72;;;;;;;;;;5032311;28;20040;-77
2022/08/18 09:09:36;;;;;;;14.23;6.20;;;;;;;;;;5031719;28;20095;-77
2022/08/18 09:12:18;;;;;;;12.48;7.03;;;;;;;;;;5038162;28;20021;-77
2022/08/18 09:14:59;;;;;;;12.50;6.38;;;;;;;;;;5034138;28;20033;-77
2022/08/18 09:17:37;;;;;;;13.60;6.68;;;;;;;;;;5039827;28;20021;-77
2022/08/18 09:20:11;;;;;;;18.08;6.90;;;;;;;;;;5037276;28;20099;-77
2022/08/18 09:22:42;;;;;;;12.43;7.07;;;;;;;;;;5039912;28;20454;-77
2022/08/18 09:25:09;;;;;;;11.98;6.47;;;;;;;;;;5045518;28;20028;-77
2022/08/18 09:27:34;;;;;;;13.20;5.90;;;;;;;;;;5044735;28;20104;-77
2022/08/18 09:30:01;;;;;;;12.32;5.80;;;;;;;;;;5042118;28;20104;-78
2022/08/18 09:32:26;;;;;;;10.48;5.50;;;;;;;;;;5038194;28;20029;-78
2022/08/18 09:34:55;;;;;;;12.45;5.40;;;;;;;;;;5041976;28;20071;-78
2022/08/18 09:37:36;;;;;;;10.85;5.50;;;;;;;;;;5035875;28;20128;-79
2022/08/18 09:42:52;;;;;;;10.85;5.53;;;;;;;;;;5034573;28;20785;-78
2022/08/18 09:45:38;;;;;;;10.57;5.13;;;;;;;;;;5036170;28;20033;-79
2022/08/18 09:48:24;;;;;;;13.43;5.07;;;;;;;;;;5032195;28;20441;-80
2022/08/18 09:50:54;;;;;;;10.48;4.65;;;;;;;;;;5035298;28;20055;-79
2022/08/18 09:53:38;;;;;;;7.47;4.03;;;;;;;;;;5036441;28;20017;-81
2022/08/18 09:56:04;;;;;;;14.15;4.65;;;;;;;;;;5032886;28;20099;-82
2022/08/18 09:58:48;;;;;;;8.43;4.78;;;;;;;;;;5034143;28;20068;-81
2022/08/18 10:01:20;;;;;;;7.97;4.10;;;;;;;;;;5030739;28;20457;-82
2022/08/18 10:04:05;;;;;;;10.02;4.13;;;;;;;;;;5039406;28;20032;-78
2022/08/18 10:06:30;;;;;;;9.95;4.60;;;;;;;;;;5037177;28;20367;-79
2022/08/18 10:09:05;;;;;;;9.90;4.60;;;;;;;;;;5040877;28;20496;-79
2022/08/18 10:11:37;;;;;;;10.68;5.43;;;;;;;;;;5038852;28;20025;-82
2022/08/18 10:14:17;;;;;;;9.90;4.75;;;;;;;;;;5030816;28;20965;-83
2022/08/18 10:16:58;;;;;;;10.48;4.55;;;;;;;;;;5033637;28;20390;-82
2022/08/18 10:19:33;;;;;;;10.65;5.00;;;;;;;;;;5040466;28;20441;-82
2022/08/18 10:21:58;;;;;;;9.65;4.68;;;;;;;;;;5040896;28;20481;-83
2022/08/18 10:24:33;;;;;;;9.18;4.03;;;;;;;;;;5039527;28;20052;-82
2022/08/18 10:27:01;;;;;;;9.52;3.97;;;;;;;;;;5039672;28;20030;-83
2022/08/18 10:29:26;;;;;;;11.32;4.55;;;;;;;;;;5049754;28;20033;-83
2022/08/18 10:31:58;;;;;;;11.52;4.30;;;;;;;;;;5027678;28;20027;-83
2022/08/18 10:34:38;;;;;;;6.47;3.72;;;;;;;;;;5032374;28;20025;-82
2022/08/18 10:37:10;;;;;;;7.53;3.60;;;;;;;;;;5040150;28;20477;-82
2022/08/18 10:39:38;;;;;;;8.95;4.30;;;;;;;;;;5032661;28;20030;-83
2022/08/18 10:42:09;;;;;;;7.85;3.60;;;;;;;;;;5032371;28;20412;-82
2022/08/18 10:44:36;;;;;;;8.88;4.35;;;;;;;;;;5030163;28;20064;-83
2022/08/18 10:47:02;;;;;;;8.23;3.85;;;;;;;;;;5033692;28;20048;-82
2022/08/18 10:49:31;;;;;;;7.10;3.60;;;;;;;;;;5030144;28;20041;-83
2022/08/18 10:52:05;;;;;;;10.50;4.10;;;;;;;;;;5031281;28;20456;-83
2022/08/18 10:54:41;;;;;;;9.70;4.57;;;;;;;;;;5033624;28;20029;-83
2022/08/18 10:57:21;;;;;;;10.80;3.90;;;;;;;;;;5039438;28;20380;-83
2022/08/18 11:00:08;;;;;;;7.80;4.18;;;;;;;;;;5034790;28;20435;-82
2022/08/18 11:02:37;;;;;;;6.65;3.80;;;;;;;;;;5034602;28;20091;-82
2022/08/18 11:05:07;;;;;;;8.82;3.63;;;;;;;;;;5031389;28;20068;-85
2022/08/18 11:07:34;;;;;;;6.60;3.17;;;;;;;;;;5032494;28;20029;-84
2022/08/18 11:10:00;;;;;;;6.70;3.33;;;;;;;;;;5036584;28;20063;-83
2022/08/18 11:12:54;;;;;;;4.82;3.38;;;;;;;;;;5041371;28;20064;-82
2022/08/18 11:15:24;;;;;;;6.30;3.85;;;;;;;;;;5022301;28;20503;-80
2022/08/18 11:18:02;;;;;;;9.68;4.18;;;;;;;;;;5020445;28;20136;-80
2022/08/18 11:20:30;;;;;;;6.95;3.35;;;;;;;;;;5040117;28;20102;-80
2022/08/18 11:22:57;;;;;;;8.70;3.83;;;;;;;;;;5021957;28;20042;-80
2022/08/18 11:25:31;;;;;;;10.20;4.15;;;;;;;;;;5035094;28;20020;-80
2022/08/18 11:27:57;;;;;;;5.78;3.30;;;;;;;;;;5037041;28;20108;-80
2022/08/18 11:30:25;;;;;;;6.13;3.47;;;;;;;;;;5026077;28;20047;-80
2022/08/18 11:32:51;;;;;;;6.10;2.88;;;;;;;;;;5031983;28;20415;-80
2022/08/18 11:35:28;;;;;;;7.22;2.95;;;;;;;;;;5037956;28;20028;-81
2022/08/18 11:38:02;;;;;;;5.10;2.92;;;;;;;;;;5034487;28;20025;-81
2022/08/18 11:40:27;;;;;;;;;;;;;;;;;;5038225;28;20026;-81
2022/08/18 11:43:10;;;;;;;5.07;2.70;;;;;;;;;;5043687;28;19904;-81
2022/08/18 11:45:51;;;;;;;3.78;2.50;;;;;;;;;;5027878;28;20412;-80
2022/08/18 11:48:19;;;;;;;4.50;2.17;;;;;;;;;;5030186;28;20424;-80
2022/08/18 11:50:53;;;;;;;3.72;1.73;;;;;;;;;;5029645;28;20036;-81
2022/08/18 11:53:21;;;;;;;3.97;1.70;;;;;;;;;;5026005;28;20021;-81
2022/08/18 11:56:01;;;;;;;6.57;1.80;;;;;;;;;;5035659;28;20084;-81
2022/08/18 11:58:45;;;;;;;3.60;2.00;;;;;;;;;;5032219;28;20346;-80
2022/08/18 12:01:30;;;;;;;7.28;1.70;;;;;;;;;;5030766;28;20127;-81
2022/08/18 12:03:58;;;;;;;5.18;1.92;;;;;;;;;;5031502;28;20076;-81
2022/08/18 12:06:28;;;;;;;3.35;1.85;;;;;;;;;;5034141;28;20037;-80
2022/08/18 12:08:53;;;;;;;3.80;1.63;;;;;;;;;;5031442;28;20048;-81
2022/08/18 12:11:21;;;;;;;6.20;1.80;;;;;;;;;;5035951;28;20029;-81
2022/08/18 12:13:47;;;;;;;5.95;1.85;;;;;;;;;;5033150;28;20026;-82
2022/08/18 12:16:15;;;;;;;3.55;1.85;;;;;;;;;;5030272;28;20021;-81
2022/08/18 12:18:40;;;;;;;6.85;2.17;;;;;;;;;;5034283;28;20099;-81
2022/08/18 12:21:06;;;;;;;2.97;1.80;;;;;;;;;;5034444;28;20042;-81
2022/08/18 12:23:33;;;;;;;3.22;1.90;;;;;;;;;;5031548;28;20045;-81
2022/08/18 12:25:58;;;;;;;5.32;2.00;;;;;;;;;;5033932;28;20067;-81
2022/08/18 12:28:25;;;;;;;4.40;1.90;;;;;;;;;;5031449;28;20366;-81
2022/08/18 12:30:51;;;;;;;3.85;1.77;;;;;;;;;;5032241;28;20450;-81
2022/08/18 12:33:16;;;;;;;4.00;1.50;;;;;;;;;;5034745;28;20045;-81
2022/08/18 12:35:43;;;;;;;6.22;1.98;;;;;;;;;;5033102;28;20068;-81
2022/08/18 12:38:08;;;;;;;3.67;2.33;;;;;;;;;;5033271;28;20048;-80
2022/08/18 12:40:34;;;;;;;5.20;2.60;;;;;;;;;;5033788;28;20432;-82
2022/08/18 12:42:59;;;;;;;4.90;2.13;;;;;;;;;;5032269;28;20045;-82
2022/08/18 12:45:26;;;;;;;4.05;2.13;;;;;;;;;;5029437;28;20017;-81
2022/08/18 12:47:51;;;;;;;5.10;2.30;;;;;;;;;;5033299;28;20026;-82
2022/08/18 12:50:16;;;;;;;4.55;2.30;;;;;;;;;;5028689;28;20103;-82
2022/08/18 12:52:42;;;;;;;5.25;2.65;;;;;;;;;;5036054;28;20025;-82
2022/08/18 12:55:07;;;;;;;4.07;2.15;;;;;;;;;;5035514;28;20017;-82
2022/08/18 12:57:33;;;;;;;7.30;2.33;;;;;;;;;;5037149;28;20034;-83
2022/08/18 12:59:59;;;;;;;3.97;2.28;;;;;;;;;;5035358;28;20071;-81
2022/08/18 13:02:24;;;;;;;7.13;2.60;;;;;;;;;;5032929;28;20021;-81
2022/08/18 13:04:49;;;;;;;4.65;2.50;;;;;;;;;;5033802;28;20037;-82
2022/08/18 13:07:15;;;;;;;7.10;2.58;;;;;;;;;;5034201;28;20416;-82
2022/08/18 13:09:40;;;;;;;4.65;2.40;;;;;;;;;;5033661;28;20030;-82
2022/08/18 13:12:06;;;;;;;6.47;2.50;;;;;;;;;;5034856;28;20077;-82
2022/08/18 13:14:32;;;;;;;5.07;3.05;;;;;;;;;;5034489;28;20354;-81
2022/08/18 13:16:57;;;;;;;5.63;2.40;;;;;;;;;;5035080;28;20029;-82
2022/08/18 13:19:22;;;;;;;5.60;2.28;;;;;;;;;;5033715;28;20040;-80
2022/08/18 13:21:48;;;;;;;7.05;2.47;;;;;;;;;;5035853;28;20029;-82
2022/08/18 13:24:13;;;;;;;5.63;2.90;;;;;;;;;;5033389;28;20574;-81
2022/08/18 13:26:42;;;;;;;5.05;2.20;;;;;;;;;;5033388;28;20115;-82
2022/08/18 13:29:07;;;;;;;6.50;2.47;;;;;;;;;;5034190;28;20040;-82
2022/08/18 13:31:32;;;;;;;8.02;2.30;;;;;;;;;;5036183;28;20033;-81
2022/08/18 13:33:58;;;;;;;13.27;2.53;;;;;;;;;;5032122;28;20122;-81
2022/08/18 13:36:24;;;;;;;4.15;2.20;;;;;;;;;;5038134;28;20017;-83
2022/08/18 13:38:51;;;;;;;11.43;3.60;;;;;;;;;;5033990;28;20025;-83
2022/08/18 13:41:17;;;;;;;4.50;2.33;;;;;;;;;;5037343;28;20037;-81
2022/08/18 13:43:43;;;;;;;4.75;2.20;;;;;;;;;;5033975;28;20039;-82
2022/08/18 13:46:10;;;;;;;5.07;2.38;;;;;;;;;;5037692;28;20025;-82
2022/08/18 13:48:35;;;;;;;5.47;2.53;;;;;;;;;;5033378;28;20041;-82
2022/08/18 13:51:01;;;;;;;8.02;2.72;;;;;;;;;;5040256;28;20093;-81
2022/08/18 13:53:28;;;;;;;4.15;2.10;;;;;;;;;;5033953;28;20044;-82
2022/08/18 13:55:56;;;;;;;7.70;2.47;;;;;;;;;;5033577;28;20095;-82
2022/08/18 13:58:22;;;;;;;5.72;2.10;;;;;;;;;;5034993;28;20116;-82
2022/08/18 14:00:53;;;;;;;6.85;2.30;;;;;;;;;;5037390;28;20100;-82
2022/08/18 14:03:22;;;;;;;4.75;2.00;;;;;;;;;;5033049;28;20030;-83
2022/08/18 14:05:47;;;;;;;7.47;2.22;;;;;;;;;;5035616;28;20384;-82
2022/08/18 14:08:12;;;;;;;3.88;2.03;;;;;;;;;;5037130;28;20117;-81
2022/08/18 14:10:38;;;;;;;9.32;2.40;;;;;;;;;;5037338;28;20028;-82
2022/08/18 14:13:06;;;;;;;6.32;2.72;;;;;;;;;;5036522;28;20625;-81
2022/08/18 14:15:35;;;;;;;6.57;2.53;;;;;;;;;;5034686;28;20091;-82
2022/08/18 14:18:00;;;;;;;6.20;2.42;;;;;;;;;;5033174;28;20036;-82
2022/08/18 14:28:37;;;;;;;6.68;2.10;;;;;;;;;;5033715;28;20507;-82
2022/08/18 14:31:03;;;;;;;4.68;1.83;;;;;;;;;;5034908;28;20022;-82
2022/08/18 14:33:29;;;;;;;4.85;2.22;;;;;;;;;;5037464;28;20033;-82
2022/08/18 14:35:54;;;;;;;7.28;1.83;;;;;;;;;;5033006;28;20017;-81
2022/08/18 14:38:19;;;;;;;3.40;1.90;;;;;;;;;;5036388;28;20034;-83
2022/08/18 14:40:46;;;;;;;3.75;1.60;;;;;;;;;;5036106;28;20115;-82
2022/08/18 14:43:13;;;;;;;4.35;1.45;;;;;;;;;;5034619;28;20029;-83
2022/08/18 14:45:38;;;;;;;2.67;1.30;;;;;;;;;;5036410;28;20031;-82
2022/08/18 14:48:04;;;;;;;2.47;1.40;;;;;;;;;;5031935;28;20037;-82
2022/08/18 14:50:30;;;;;;;2.25;1.20;;;;;;;;;;5035441;28;20056;-82
2022/08/18 14:52:55;;;;;;;2.60;1.30;;;;;;;;;;5033816;28;20461;-81
2022/08/18 14:55:20;;;;;;;4.10;1.30;;;;;;;;;;5036416;28;20040;-83
2022/08/18 14:57:45;;;;;;;3.08;1.40;;;;;;;;;;5032902;28;20448;-82
2022/08/18 15:00:16;;;;;;;5.22;1.60;;;;;;;;;;5035323;28;20075;-82
2022/08/18 15:02:42;;;;;;;3.75;1.60;;;;;;;;;;5033600;28;20048;-82
2022/08/18 15:05:08;;;;;;;6.97;1.50;;;;;;;;;;5036150;28;20025;-83
2022/08/18 15:07:33;;;;;;;6.38;1.75;;;;;;;;;;5035561;28;20040;-81
2022/08/18 15:09:59;;;;;;;2.30;1.10;;;;;;;;;;5032537;28;20465;-82